createdAt,value
2022-12-03T00:02:14.577Z,102140.41
2022-12-03T00:04:37.034Z,102142.69
2022-12-03T00:06:59.321Z,102142.28
2022-12-03T00:09:21.620Z,102141.22
2022-12-03T00:11:43.915Z,102139.19
2022-12-03T00:14:06.211Z,102146.47
2022-12-03T00:16:28.622Z,102138.31
2022-12-03T00:18:50.978Z,102126.44
2022-12-03T00:21:13.241Z,102140.22
2022-12-03T00:23:41.568Z,102139.78
2022-12-03T00:26:04.543Z,102136.22
2022-12-03T00:28:26.892Z,102134.75
2022-12-03T00:30:49.592Z,102130.38
2022-12-03T00:33:11.915Z,102135.38
2022-12-03T00:35:34.351Z,102137.66
2022-12-03T00:37:56.694Z,102130.53
2022-12-03T00:40:18.960Z,102137.44
2022-12-03T00:42:41.387Z,102134.31
2022-12-03T00:45:04.037Z,102126.59
2022-12-03T00:47:26.316Z,102129.06
2022-12-03T00:49:48.651Z,102133.00
2022-12-03T00:52:10.909Z,102122.38
2022-12-03T00:54:33.300Z,102129.25
2022-12-03T00:56:55.626Z,102128.22
2022-12-03T00:59:17.928Z,102131.94
2022-12-03T01:01:40.306Z,102131.13
2022-12-03T01:04:02.709Z,102129.25
2022-12-03T01:06:25.014Z,102126.50
2022-12-03T01:08:47.317Z,102128.38
2022-12-03T01:11:29.560Z,102120.91
2022-12-03T01:13:51.922Z,102122.31
2022-12-03T01:16:14.332Z,102124.03
2022-12-03T01:18:36.681Z,102128.00
2022-12-03T01:20:58.953Z,102129.56
2022-12-03T01:23:21.250Z,102123.53
2022-12-03T01:25:43.564Z,102128.94
2022-12-03T01:28:05.857Z,102131.47
2022-12-03T01:30:28.142Z,102125.88
2022-12-03T01:32:50.433Z,102124.00
2022-12-03T01:35:12.738Z,102119.44
2022-12-03T01:37:35.075Z,102126.06
2022-12-03T01:39:57.362Z,102130.66
2022-12-03T01:42:36.955Z,102131.47
2022-12-03T01:44:59.409Z,102120.88
2022-12-03T01:47:26.191Z,102118.19
2022-12-03T01:49:54.046Z,102118.38
2022-12-03T01:52:18.733Z,102116.75
2022-12-03T01:54:46.191Z,102110.72
2022-12-03T01:57:25.511Z,102104.69
2022-12-03T01:59:47.865Z,102106.97
2022-12-03T02:02:17.583Z,102105.28
2022-12-03T02:04:40.035Z,102105.28
2022-12-03T02:07:19.731Z,102100.72
2022-12-03T02:09:42.052Z,102105.28
2022-12-03T02:12:04.678Z,102097.78
2022-12-03T02:14:26.988Z,102102.34
2022-12-03T02:16:49.306Z,102102.50
2022-12-03T02:19:22.719Z,102097.75
2022-12-03T02:21:57.061Z,102096.09
2022-12-03T02:24:52.927Z,102109.41
2022-12-03T02:27:15.379Z,102095.47
2022-12-03T02:29:37.674Z,102087.34
2022-12-03T02:32:00.052Z,102085.06
2022-12-03T02:34:40.832Z,102091.94
2022-12-03T02:37:03.272Z,102096.50
2022-12-03T02:39:25.576Z,102089.00
2022-12-03T02:42:06.608Z,102086.13
2022-12-03T02:44:28.946Z,102090.09
2022-12-03T02:46:51.344Z,102083.00
2022-12-03T02:49:13.712Z,102077.19
2022-12-03T02:51:36.333Z,102083.22
2022-12-03T02:53:58.640Z,102083.03
2022-12-03T02:56:23.851Z,102074.06
2022-12-03T02:58:47.557Z,102088.63
2022-12-03T03:01:09.968Z,102090.72
2022-12-03T03:03:32.492Z,102083.25
2022-12-03T03:05:56.801Z,102088.91
2022-12-03T03:08:19.203Z,102091.41
2022-12-03T03:10:41.589Z,102099.53
2022-12-03T03:13:06.999Z,102091.63
2022-12-03T03:15:29.285Z,102093.53
2022-12-03T03:17:51.844Z,102087.03
2022-12-03T03:20:14.515Z,102088.09
2022-12-03T03:22:40.041Z,102081.44
2022-12-03T03:25:02.771Z,102085.41
2022-12-03T03:27:25.073Z,102090.38
2022-12-03T03:29:47.378Z,102098.72
2022-12-03T03:32:09.849Z,102088.28
2022-12-03T03:34:32.855Z,102087.03
2022-12-03T03:36:55.151Z,102089.56
2022-12-03T03:39:17.488Z,102088.69
2022-12-03T03:41:39.765Z,102085.38
2022-12-03T03:44:02.204Z,102078.69
2022-12-03T03:46:24.582Z,102077.25
2022-12-03T03:48:48.352Z,102079.53
2022-12-03T03:51:10.873Z,102078.28
2022-12-03T03:53:33.157Z,102081.63
2022-12-03T03:55:55.520Z,102075.38
2022-12-03T03:58:17.866Z,102077.28
2022-12-03T04:00:40.242Z,102070.19
2022-12-03T04:03:04.785Z,102067.09
2022-12-03T04:05:27.088Z,102067.69
2022-12-03T04:07:49.486Z,102065.66
2022-12-03T04:10:30.526Z,102063.75
2022-12-03T04:12:55.704Z,102070.63
2022-12-03T04:15:17.980Z,102068.94
2022-12-03T04:17:40.270Z,102072.66
2022-12-03T04:20:02.561Z,102071.22
2022-12-03T04:22:40.090Z,102067.91
2022-12-03T04:25:21.202Z,102067.09
2022-12-03T04:28:02.868Z,102060.22
2022-12-03T04:30:25.276Z,102059.78
2022-12-03T04:33:06.412Z,102064.81
2022-12-03T04:35:44.195Z,102060.25
2022-12-03T04:38:06.556Z,102066.69
2022-12-03T04:40:47.450Z,102066.47
2022-12-03T04:43:09.816Z,102057.72
2022-12-03T04:45:32.318Z,102051.69
2022-12-03T04:47:54.667Z,102054.59
2022-12-03T04:50:17.028Z,102057.31
2022-12-03T04:52:39.363Z,102052.09
2022-12-03T04:55:01.661Z,102048.78
2022-12-03T04:57:24.059Z,102047.50
2022-12-03T04:59:46.360Z,102046.47
2022-12-03T05:02:11.134Z,102047.34
2022-12-03T05:04:34.700Z,102041.69
2022-12-03T05:06:57.018Z,102051.06
2022-12-03T05:09:19.424Z,102051.72
2022-12-03T05:11:41.981Z,102056.31
2022-12-03T05:14:19.397Z,102053.38
2022-12-03T05:16:41.749Z,102047.75
2022-12-03T05:19:04.834Z,102057.75
2022-12-03T05:21:27.112Z,102048.38
2022-12-03T05:23:49.565Z,102043.38
2022-12-03T05:26:11.949Z,102033.81
2022-12-03T05:28:34.253Z,102034.81
2022-12-03T05:30:56.543Z,102031.50
2022-12-03T05:33:18.961Z,102023.16
2022-12-03T05:35:41.243Z,102026.50
2022-12-03T05:38:03.533Z,102025.44
2022-12-03T05:40:25.970Z,102025.25
2022-12-03T05:42:54.485Z,102020.44
2022-12-03T05:45:16.829Z,102030.44
2022-12-03T05:47:39.157Z,102027.97
2022-12-03T05:50:01.448Z,102023.16
2022-12-03T05:52:23.769Z,102020.44
2022-12-03T05:54:46.041Z,102023.97
2022-12-03T05:57:08.351Z,102018.56
2022-12-03T05:59:30.617Z,102020.66
2022-12-03T06:01:52.906Z,102018.97
2022-12-03T06:04:15.219Z,102015.84
2022-12-03T06:06:37.511Z,102015.84
2022-12-03T06:08:59.790Z,102012.31
2022-12-03T06:11:22.119Z,102017.31
2022-12-03T06:13:44.382Z,102010.66
2022-12-03T06:16:06.831Z,102020.22
2022-12-03T06:18:29.439Z,102017.50
2022-12-03T06:20:51.744Z,102022.31
2022-12-03T06:23:14.061Z,102019.38
2022-12-03T06:25:36.391Z,102025.44
2022-12-03T06:27:58.678Z,102024.63
2022-12-03T06:30:20.994Z,102024.41
2022-12-03T06:32:43.292Z,102025.44
2022-12-03T06:35:05.895Z,102027.97
2022-12-03T06:37:28.201Z,102019.59
2022-12-03T06:39:50.476Z,102021.28
2022-12-03T06:42:12.825Z,102024.63
2022-12-03T06:44:35.133Z,102029.22
2022-12-03T06:46:57.480Z,102029.22
2022-12-03T06:49:19.849Z,102021.09
2022-12-03T06:51:42.186Z,102032.13
2022-12-03T06:54:05.027Z,102026.50
2022-12-03T06:56:32.843Z,102023.16
2022-12-03T06:58:57.509Z,102019.84
2022-12-03T07:01:20.330Z,102024.22
2022-12-03T07:03:42.662Z,102015.44
2022-12-03T07:06:05.126Z,102015.03
2022-12-03T07:08:28.001Z,102016.91
2022-12-03T07:10:50.338Z,102014.84
2022-12-03T07:13:12.641Z,102021.72
2022-12-03T07:15:34.947Z,102011.91
2022-12-03T07:17:57.227Z,102009.63
2022-12-03T07:20:19.957Z,102014.44
2022-12-03T07:22:42.372Z,102004.63
2022-12-03T07:25:05.879Z,102012.97
2022-12-03T07:27:28.164Z,102008.78
2022-12-03T07:29:50.488Z,102005.03
2022-12-03T07:32:12.797Z,102005.66
2022-12-03T07:34:35.078Z,102007.75
2022-12-03T07:36:57.392Z,102014.44
2022-12-03T07:39:19.707Z,102011.72
2022-12-03T07:41:42.068Z,102014.00
2022-12-03T07:44:09.159Z,102005.88
2022-12-03T07:46:34.905Z,102015.88
2022-12-03T07:48:57.205Z,102015.88
2022-12-03T07:51:19.557Z,102011.91
2022-12-03T07:53:42.121Z,102016.50
2022-12-03T07:56:05.327Z,102016.31
2022-12-03T07:58:27.606Z,102016.31
2022-12-03T08:00:49.957Z,102012.16
2022-12-03T08:03:12.267Z,102010.66
2022-12-03T08:05:34.566Z,102006.06
2022-12-03T08:07:57.163Z,102004.81
2022-12-03T08:10:19.578Z,102010.25
2022-12-03T08:12:41.988Z,102002.75
2022-12-03T08:15:19.754Z,102004.22
2022-12-03T08:17:42.537Z,101998.38
2022-12-03T08:20:19.889Z,101996.06
2022-12-03T08:22:43.371Z,101993.97
2022-12-03T08:25:21.669Z,101996.69
2022-12-03T08:27:43.982Z,101994.81
2022-12-03T08:30:14.913Z,101994.63
2022-12-03T08:32:37.185Z,101998.19
2022-12-03T08:34:59.483Z,101995.88
2022-12-03T08:37:21.830Z,101997.75
2022-12-03T08:39:46.729Z,101996.69
2022-12-03T08:42:37.957Z,101998.78
2022-12-03T08:45:39.571Z,102000.66
2022-12-03T08:48:40.707Z,101992.94
2022-12-03T08:51:25.337Z,101999.22
2022-12-03T08:53:54.290Z,101998.38
2022-12-03T08:56:29.485Z,102003.38
2022-12-03T08:59:18.648Z,101999.41
2022-12-03T09:01:46.393Z,101996.88
2022-12-03T09:04:38.456Z,101997.94
2022-12-03T09:06:41.586Z,102002.09
2022-12-03T09:08:45.025Z,101998.78
2022-12-03T09:10:47.499Z,102009.59
2022-12-03T09:12:49.564Z,102002.09
2022-12-03T09:14:55.109Z,102004.16
2022-12-03T09:16:57.584Z,101999.59
2022-12-03T09:18:59.848Z,101998.97
2022-12-03T09:21:02.065Z,102000.41
2022-12-03T09:25:46.591Z,101996.66
2022-12-03T09:27:49.813Z,101997.50
2022-12-03T09:29:51.767Z,101994.56
2022-12-03T09:31:53.856Z,101997.88
2022-12-03T09:34:01.655Z,102002.09
2022-12-03T09:36:03.895Z,102000.22
2022-12-03T09:38:06.053Z,101998.31
2022-12-03T09:40:10.528Z,102001.44
2022-12-03T09:42:12.885Z,101985.56
2022-12-03T09:44:18.236Z,101984.13
2022-12-03T09:46:21.281Z,101993.28
2022-12-03T09:48:23.657Z,101991.19
2022-12-03T09:50:42.402Z,101987.22
2022-12-03T10:03:52.380Z,101979.94
2022-12-03T10:08:58.750Z,101986.38
2022-12-03T10:11:24.743Z,101981.78
2022-12-03T10:13:47.177Z,101976.97
2022-12-03T10:16:16.469Z,101969.69
2022-12-03T10:18:41.879Z,101966.56
2022-12-03T10:21:16.817Z,101966.09
2022-12-03T10:23:44.233Z,101957.16
2022-12-03T10:28:54.905Z,101957.13
2022-12-03T10:31:17.434Z,101958.13
2022-12-03T10:40:19.203Z,101953.94
2022-12-03T10:49:27.810Z,101929.88
2022-12-03T10:51:50.161Z,101927.19
2022-12-03T10:54:19.516Z,101937.59
2022-12-03T10:56:41.928Z,101933.00
2022-12-03T10:59:04.243Z,101923.13
2022-12-03T11:01:26.889Z,101934.81
2022-12-03T11:03:55.743Z,101919.56
2022-12-03T11:06:22.911Z,101928.72
2022-12-03T11:08:53.014Z,101918.53
2022-12-03T11:11:25.408Z,101912.28
2022-12-03T11:13:58.548Z,101911.63
2022-12-03T11:16:39.439Z,101910.38
2022-12-03T11:19:02.378Z,101912.88
2022-12-03T11:21:25.279Z,101904.97
2022-12-03T11:23:47.438Z,101901.97
2022-12-03T11:26:14.206Z,101901.78
2022-12-03T11:28:58.761Z,101891.50
2022-12-03T11:31:43.902Z,101897.16
2022-12-03T11:34:18.536Z,101900.63
2022-12-03T11:37:09.849Z,101894.50
2022-12-03T11:39:53.387Z,101899.34
2022-12-03T11:42:27.458Z,101903.13
2022-12-03T11:45:04.584Z,101899.50
2022-12-03T11:47:27.004Z,101896.78
2022-12-03T11:49:49.345Z,101894.94
2022-12-03T11:52:33.109Z,101895.09
2022-12-03T11:55:12.556Z,101891.53
2022-12-03T11:57:38.377Z,101896.31
2022-12-03T12:00:08.944Z,101895.34
2022-12-03T12:02:31.273Z,101895.06
2022-12-03T12:04:53.568Z,101888.53
2022-12-03T12:07:35.289Z,101887.06
2022-12-03T12:09:58.069Z,101886.69
2022-12-03T12:12:32.012Z,101879.69
2022-12-03T12:14:54.368Z,101878.88
2022-12-03T12:17:49.105Z,101882.25
2022-12-03T12:20:13.136Z,101876.53
2022-12-03T12:22:35.469Z,101876.56
2022-12-03T12:25:02.559Z,101878.63
2022-12-03T12:27:36.196Z,101881.34
2022-12-03T12:30:03.087Z,101882.78
2022-12-03T12:32:50.509Z,101893.38
2022-12-03T12:35:17.263Z,101887.50
2022-12-03T12:37:59.117Z,101890.00
2022-12-03T12:40:26.849Z,101890.44
2022-12-03T12:42:57.977Z,101896.72
2022-12-03T12:45:23.282Z,101872.72
2022-12-03T12:47:50.050Z,101888.19
2022-12-03T12:50:13.442Z,101885.03
2022-12-03T12:52:35.742Z,101891.28
2022-12-03T12:55:03.033Z,101889.81
2022-12-03T12:57:27.097Z,101885.47
2022-12-03T12:59:50.376Z,101882.56
2022-12-03T13:02:31.799Z,101886.59
2022-12-03T13:04:39.679Z,101877.63
2022-12-03T13:06:42.145Z,101873.00
2022-12-03T13:08:46.543Z,101875.91
2022-12-03T13:10:48.863Z,101876.13
2022-12-03T13:12:51.186Z,101873.22
2022-12-03T13:14:53.463Z,101869.66
2022-12-03T13:16:56.001Z,101873.25
2022-12-03T13:18:59.141Z,101873.47
2022-12-03T13:21:40.057Z,101873.06
2022-12-03T13:23:42.426Z,101871.38
2022-12-03T13:26:07.122Z,101867.59
2022-12-03T13:28:07.718Z,101870.13
2022-12-03T13:30:14.977Z,101873.78
2022-12-03T13:32:22.767Z,101876.47
2022-12-03T13:34:27.769Z,101882.72
2022-12-03T13:36:42.547Z,101878.94
2022-12-03T13:38:44.663Z,101871.41
2022-12-03T13:40:46.813Z,101868.91
2022-12-03T13:42:49.175Z,101870.13
2022-12-03T13:44:51.295Z,101869.75
2022-12-03T13:46:53.572Z,101878.28
2022-12-03T13:49:00.324Z,101866.00
2022-12-03T13:51:33.551Z,101875.66
2022-12-03T13:53:37.645Z,101869.84
2022-12-03T13:55:43.922Z,101879.69
2022-12-03T13:57:46.542Z,101867.34
2022-12-03T13:59:48.660Z,101870.66
2022-12-03T14:01:50.742Z,101870.91
2022-12-03T14:03:53.615Z,101877.78
2022-12-03T14:05:56.084Z,101873.66
2022-12-03T14:08:01.750Z,101876.59
2022-12-03T14:10:06.777Z,101875.72
2022-12-03T14:12:27.390Z,101874.66
2022-12-03T14:14:30.109Z,101871.13
2022-12-03T14:16:32.854Z,101862.16
2022-12-03T14:18:35.383Z,101863.03
2022-12-03T14:20:37.476Z,101862.41
2022-12-03T14:22:40.207Z,101861.13
2022-12-03T14:24:42.804Z,101857.81
2022-12-03T14:26:45.565Z,101863.25
2022-12-03T14:28:47.968Z,101868.22
2022-12-03T14:30:50.609Z,101860.53
2022-12-03T14:32:53.197Z,101860.91
2022-12-03T14:34:55.863Z,101857.19
2022-12-03T14:36:58.866Z,101850.09
2022-12-03T14:39:02.800Z,101848.44
2022-12-03T14:41:25.395Z,101836.09
2022-12-03T14:43:28.267Z,101848.59
2022-12-03T14:45:30.914Z,101852.19
2022-12-03T14:47:33.638Z,101845.72
2022-12-03T14:49:36.294Z,101852.03
2022-12-03T14:51:39.060Z,101852.19
2022-12-03T14:53:44.008Z,101853.44
2022-12-03T14:55:48.126Z,101851.75
2022-12-03T14:57:50.768Z,101853.91
2022-12-03T14:59:53.697Z,101853.63
2022-12-03T15:01:57.113Z,101860.34
2022-12-03T15:04:00.485Z,101857.47
2022-12-03T15:06:03.216Z,101858.72
2022-12-03T15:08:05.725Z,101852.03
2022-12-03T15:10:08.826Z,101856.44
2022-12-03T15:12:11.450Z,101857.69
2022-12-03T15:14:13.863Z,101852.31
2022-12-03T15:16:16.225Z,101855.19
2022-12-03T15:18:19.490Z,101857.06
2022-12-03T15:20:21.859Z,101849.50
2022-12-03T15:22:24.293Z,101852.06
2022-12-03T15:24:43.323Z,101848.69
2022-12-03T15:26:46.394Z,101841.41
2022-12-03T15:28:49.477Z,101840.38
2022-12-03T15:30:53.676Z,101849.78
2022-12-03T15:32:56.891Z,101855.38
2022-12-03T15:34:59.189Z,101851.22
2022-12-03T15:37:02.241Z,101848.31
2022-12-03T15:39:04.750Z,101849.16
2022-12-03T15:41:24.649Z,101857.25
2022-12-03T15:43:26.695Z,101851.03
2022-12-03T15:45:31.078Z,101856.50
2022-12-03T15:47:51.702Z,101859.41
2022-12-03T15:50:13.867Z,101855.84
2022-12-03T15:52:40.122Z,101848.34
2022-12-03T15:57:16.316Z,101856.91
2022-12-03T16:02:21.092Z,101857.53
2022-12-03T16:05:02.532Z,101861.06
2022-12-03T16:07:31.885Z,101856.50
2022-12-03T16:09:58.233Z,101855.41
2022-12-03T16:12:22.024Z,101851.50
2022-12-03T16:14:44.422Z,101860.06
2022-12-03T16:17:06.844Z,101854.22
2022-12-03T16:19:29.249Z,101855.69
2022-12-03T16:21:51.551Z,101852.13
2022-12-03T16:24:13.870Z,101845.66
2022-12-03T16:26:37.541Z,101857.56
2022-12-03T16:28:59.877Z,101867.97
2022-12-03T16:31:22.347Z,101865.50
2022-12-03T16:33:49.011Z,101851.28
2022-12-03T16:36:12.476Z,101858.38
2022-12-03T16:38:35.043Z,101860.00
2022-12-03T16:40:57.333Z,101860.84
2022-12-03T16:43:24.283Z,101856.25
2022-12-03T16:46:02.125Z,101850.38
2022-12-03T16:48:25.888Z,101859.81
2022-12-03T16:50:49.614Z,101861.47
2022-12-03T16:53:12.955Z,101853.94
2022-12-03T16:55:37.536Z,101855.84
2022-12-03T16:58:04.516Z,101858.97
2022-12-03T17:00:31.434Z,101862.91
2022-12-03T17:02:53.850Z,101869.59
2022-12-03T17:05:16.505Z,101854.13
2022-12-03T17:07:42.532Z,101865.41
2022-12-03T17:10:06.204Z,101868.75
2022-12-03T17:12:42.256Z,101866.19
2022-12-03T17:15:12.436Z,101868.31
2022-12-03T17:17:35.237Z,101865.34
2022-12-03T17:19:57.849Z,101871.44
2022-12-03T17:22:20.187Z,101855.94
2022-12-03T17:24:42.565Z,101859.53
2022-12-03T17:27:06.340Z,101868.91
2022-12-03T17:29:29.020Z,101854.13
2022-12-03T17:31:51.428Z,101857.25
2022-12-03T17:34:13.846Z,101855.81
2022-12-03T17:36:36.128Z,101856.66
2022-12-03T17:38:59.723Z,101858.09
2022-12-03T17:41:28.589Z,101854.53
2022-12-03T17:43:51.011Z,101856.81
2022-12-03T17:46:13.397Z,101862.69
2022-12-03T17:48:35.934Z,101864.53
2022-12-03T17:50:58.708Z,101861.81
2022-12-03T17:58:51.367Z,101857.56
2022-12-03T18:01:14.214Z,101859.91
2022-12-03T18:03:37.108Z,101859.69
2022-12-03T18:05:59.992Z,101860.34
2022-12-03T18:08:22.381Z,101859.28
2022-12-03T18:10:44.695Z,101854.31
2022-12-03T18:13:07.054Z,101858.25
2022-12-03T18:15:30.063Z,101852.38
2022-12-03T18:17:52.752Z,101852.16
2022-12-03T18:20:15.119Z,101850.00
2022-12-03T18:22:37.476Z,101851.72
2022-12-03T18:24:59.873Z,101855.25
2022-12-03T18:27:22.401Z,101849.03
2022-12-03T18:29:45.327Z,101843.34
2022-12-03T18:32:27.133Z,101849.84
2022-12-03T18:34:50.932Z,101845.69
2022-12-03T18:37:15.967Z,101835.84
2022-12-03T18:39:38.436Z,101841.44
2022-12-03T18:42:09.705Z,101839.97
2022-12-03T18:44:32.103Z,101843.97
2022-12-03T18:46:55.041Z,101849.78
2022-12-03T18:49:17.623Z,101860.69
2022-12-03T18:51:48.464Z,101860.84
2022-12-03T18:54:14.822Z,101850.00
2022-12-03T18:56:37.296Z,101837.25
2022-12-03T18:58:59.903Z,101851.22
2022-12-03T19:01:22.871Z,101852.25
2022-12-03T19:03:45.229Z,101844.75
2022-12-03T19:06:20.746Z,101848.31
2022-12-03T19:08:43.689Z,101855.16
2022-12-03T19:11:06.208Z,101853.09
2022-12-03T19:13:28.632Z,101865.47
2022-12-03T19:33:01.940Z,101838.44
2022-12-03T19:35:24.366Z,101841.94
2022-12-03T19:37:48.068Z,101861.31
2022-12-03T19:40:10.956Z,101861.72
2022-12-03T19:42:36.215Z,101853.78
2022-12-03T19:44:58.506Z,101861.25
2022-12-03T19:47:24.720Z,101841.66
2022-12-03T19:49:52.466Z,101848.81
2022-12-03T19:52:15.010Z,101855.06
2022-12-03T19:54:37.343Z,101852.56
2022-12-03T19:56:39.483Z,101863.00
2022-12-03T19:58:42.090Z,101859.88
2022-12-03T20:00:44.513Z,101862.38
2022-12-03T20:02:50.146Z,101854.88
2022-12-03T20:04:52.524Z,101853.84
2022-12-03T20:06:54.611Z,101855.53
2022-12-03T20:09:04.287Z,101846.94
2022-12-03T20:11:14.989Z,101847.19
2022-12-03T20:13:17.236Z,101847.56
2022-12-03T20:15:20.613Z,101864.88
2022-12-03T20:17:22.703Z,101864.28
2022-12-03T20:19:25.041Z,101861.16
2022-12-03T20:21:28.789Z,101857.34
2022-12-03T20:23:30.948Z,101860.50
2022-12-03T20:25:37.025Z,101862.38
2022-12-03T20:27:39.543Z,101862.78
2022-12-03T20:29:41.858Z,101864.88
2022-12-03T20:31:44.423Z,101873.66
2022-12-03T20:33:48.228Z,101866.34
2022-12-03T20:35:54.645Z,101867.38
2022-12-03T20:37:57.024Z,101863.19
2022-12-03T20:39:59.375Z,101862.09
2022-12-03T20:42:01.797Z,101858.53
2022-12-03T20:44:06.344Z,101859.63
2022-12-03T20:46:26.543Z,101860.22
2022-12-03T20:48:28.769Z,101865.22
2022-12-03T20:50:31.090Z,101855.78
2022-12-03T20:52:33.263Z,101852.22
2022-12-03T20:54:35.860Z,101852.84
2022-12-03T20:56:39.581Z,101852.63
2022-12-03T20:58:41.925Z,101851.38
2022-12-03T21:00:44.089Z,101847.81
2022-12-03T21:02:46.746Z,101857.16
2022-12-03T21:04:49.220Z,101850.97
2022-12-03T21:06:51.615Z,101848.66
2022-12-03T21:08:54.521Z,101850.91
2022-12-03T21:10:56.956Z,101853.19
2022-12-03T21:12:59.595Z,101854.84
2022-12-03T21:15:02.024Z,101855.22
2022-12-03T21:17:09.184Z,101849.63
2022-12-03T21:19:11.963Z,101856.06
2022-12-03T21:21:15.970Z,101857.34
2022-12-03T21:23:18.237Z,101849.00
2022-12-03T21:25:20.269Z,101857.16
2022-12-03T21:27:22.604Z,101851.72
2022-12-03T21:29:24.943Z,101848.34
2022-12-03T21:31:27.527Z,101850.22
2022-12-03T21:33:30.223Z,101856.13
2022-12-03T21:35:32.606Z,101843.75
2022-12-03T21:37:35.009Z,101853.13
2022-12-03T21:39:37.488Z,101852.50
2022-12-03T21:41:39.776Z,101855.22
2022-12-03T21:43:42.681Z,101851.06
2022-12-03T21:45:45.252Z,101848.50
2022-12-03T21:47:48.546Z,101856.06
2022-12-03T21:49:50.995Z,101848.91
2022-12-03T21:51:53.117Z,101845.34
2022-12-03T21:53:55.391Z,101856.91
2022-12-03T21:55:58.193Z,101851.22
2022-12-03T21:58:00.376Z,101846.41
2022-12-03T22:00:07.783Z,101847.59
2022-12-03T22:02:10.790Z,101843.63
2022-12-03T22:04:13.332Z,101836.28
2022-12-03T22:06:15.955Z,101845.97
2022-12-03T22:08:18.595Z,101850.72
2022-12-03T22:10:20.789Z,101840.84
2022-12-03T22:12:22.958Z,101839.41
2022-12-03T22:14:25.082Z,101842.34
2022-12-03T22:16:27.207Z,101839.41
2022-12-03T22:18:29.346Z,101833.38
2022-12-03T22:20:31.385Z,101841.44
2022-12-03T22:22:33.515Z,101833.50
2022-12-03T22:24:35.535Z,101832.00
2022-12-03T22:26:37.549Z,101831.63
2022-12-03T22:28:57.996Z,101832.47
2022-12-03T22:31:18.716Z,101838.28
2022-12-03T22:33:41.399Z,101829.53
2022-12-03T22:36:14.859Z,101831.19
2022-12-03T22:38:42.244Z,101833.88
2022-12-03T22:41:08.841Z,101836.63
2022-12-03T22:43:31.141Z,101833.28
2022-12-03T22:45:54.867Z,101833.81
2022-12-03T22:48:17.245Z,101834.06
2022-12-03T22:50:46.061Z,101832.00
2022-12-03T22:53:08.424Z,101831.94
2022-12-03T22:55:30.744Z,101820.84
2022-12-03T22:57:53.042Z,101826.66
2022-12-03T23:00:26.744Z,101817.69
2022-12-03T23:02:49.125Z,101810.34
2022-12-03T23:05:11.490Z,101815.41
2022-12-03T23:07:33.871Z,101811.03
2022-12-03T23:09:56.433Z,101806.81
2022-12-03T23:12:18.959Z,101801.44
2022-12-03T23:14:41.247Z,101797.19
2022-12-03T23:17:03.721Z,101798.66
2022-12-03T23:19:26.062Z,101790.94
2022-12-03T23:21:48.374Z,101800.09
2022-12-03T23:24:10.687Z,101788.38
2022-12-03T23:26:37.456Z,101785.41
2022-12-03T23:28:59.758Z,101788.97
2022-12-03T23:31:29.865Z,101794.19
2022-12-03T23:33:52.642Z,101778.91
2022-12-03T23:36:15.174Z,101777.94
2022-12-03T23:38:37.673Z,101783.53
2022-12-03T23:41:08.662Z,101788.13
2022-12-03T23:43:31.086Z,101790.72
2022-12-03T23:45:53.375Z,101788.59
2022-12-03T23:48:15.767Z,101789.66
2022-12-03T23:50:41.437Z,101785.66
2022-12-03T23:53:03.787Z,101784.81
2022-12-03T23:55:26.375Z,101791.00
2022-12-03T23:57:48.732Z,101790.63
